createdAt,value
2018-07-26T00:02:03.272Z,7.07
2018-07-26T00:04:32.300Z,8.30
2018-07-26T00:07:01.365Z,8.17
2018-07-26T00:09:30.336Z,8.93
2018-07-26T00:11:59.335Z,8.13
2018-07-26T00:14:28.304Z,8.30
2018-07-26T00:16:57.344Z,10.03
2018-07-26T00:19:26.300Z,9.87
2018-07-26T00:21:55.254Z,9.10
2018-07-26T00:24:24.236Z,10.20
2018-07-26T00:26:53.224Z,10.00
2018-07-26T00:29:22.228Z,9.50
2018-07-26T00:31:51.193Z,10.23
2018-07-26T00:34:20.140Z,10.87
2018-07-26T00:36:49.112Z,10.97
2018-07-26T00:39:18.084Z,10.80
2018-07-26T00:41:47.076Z,11.00
2018-07-26T00:44:16.017Z,12.27
2018-07-26T00:46:45.008Z,12.33
2018-07-26T00:49:13.952Z,11.40
2018-07-26T00:51:42.920Z,12.60
2018-07-26T00:54:11.922Z,12.03
2018-07-26T00:56:40.951Z,10.73
2018-07-26T00:59:09.944Z,11.80
2018-07-26T01:01:38.959Z,10.83
2018-07-26T01:04:08.024Z,10.23
2018-07-26T01:06:37.025Z,9.47
2018-07-26T01:09:08.993Z,9.40
2018-07-26T01:11:38.263Z,8.20
2018-07-26T01:14:07.228Z,9.40
2018-07-26T01:16:36.205Z,8.43
2018-07-26T01:19:05.430Z,8.87
2018-07-26T01:21:34.448Z,8.60
2018-07-26T01:24:03.636Z,8.30
2018-07-26T01:26:32.712Z,7.73
2018-07-26T01:29:01.793Z,8.47
2018-07-26T01:31:30.839Z,8.60
2018-07-26T01:33:59.866Z,8.40
2018-07-26T01:36:28.824Z,8.77
2018-07-26T01:38:57.927Z,6.73
2018-07-26T01:41:26.945Z,6.53
2018-07-26T01:44:06.687Z,7.80
2018-07-26T01:46:35.615Z,7.27
2018-07-26T01:49:04.683Z,8.20
2018-07-26T01:51:33.648Z,8.67
2018-07-26T01:54:02.721Z,8.10
2018-07-26T01:56:31.746Z,8.60
2018-07-26T01:59:00.692Z,7.73
2018-07-26T02:01:29.660Z,8.07
2018-07-26T02:03:58.672Z,7.90
2018-07-26T02:06:27.702Z,7.93
2018-07-26T02:08:56.692Z,8.40
2018-07-26T02:11:25.794Z,8.60
2018-07-26T02:13:54.824Z,8.77
2018-07-26T02:16:23.846Z,8.33
2018-07-26T02:18:52.932Z,9.30
2018-07-26T02:21:21.880Z,9.17
2018-07-26T02:23:50.869Z,9.23
2018-07-26T02:26:19.829Z,11.10
2018-07-26T02:28:48.847Z,11.90
2018-07-26T02:31:17.800Z,10.47
2018-07-26T02:33:46.827Z,10.10
2018-07-26T02:36:15.788Z,12.90
2018-07-26T02:38:44.796Z,10.70
2018-07-26T02:41:13.829Z,11.03
2018-07-26T02:43:42.860Z,13.03
2018-07-26T02:46:11.901Z,12.30
2018-07-26T02:48:40.844Z,12.60
2018-07-26T02:51:09.902Z,14.67
2018-07-26T02:53:38.910Z,13.17
2018-07-26T02:56:07.916Z,15.03
2018-07-26T02:58:36.892Z,15.50
2018-07-26T03:01:05.908Z,14.20
2018-07-26T03:03:35.047Z,16.23
2018-07-26T03:06:04.013Z,14.83
2018-07-26T03:08:33.045Z,14.47
2018-07-26T03:11:02.098Z,12.80
2018-07-26T03:13:31.072Z,11.63
2018-07-26T03:16:00.154Z,12.40
2018-07-26T03:18:29.108Z,13.00
2018-07-26T03:20:58.369Z,14.33
2018-07-26T03:23:27.325Z,13.57
2018-07-26T03:25:56.296Z,10.27
2018-07-26T03:28:25.282Z,9.33
2018-07-26T03:30:54.290Z,9.20
2018-07-26T03:33:23.334Z,9.27
2018-07-26T03:35:52.345Z,7.70
2018-07-26T03:38:21.432Z,7.93
2018-07-26T03:40:50.408Z,7.40
2018-07-26T03:43:19.429Z,7.30
2018-07-26T03:45:48.408Z,7.20
2018-07-26T03:48:17.388Z,7.60
2018-07-26T03:50:46.454Z,7.90
2018-07-26T03:53:15.487Z,6.90
2018-07-26T03:55:44.573Z,6.93
2018-07-26T03:58:13.544Z,8.53
2018-07-26T04:00:42.585Z,9.40
2018-07-26T04:03:11.647Z,9.63
2018-07-26T04:05:40.648Z,9.10
2018-07-26T04:08:24.141Z,9.10
2018-07-26T04:10:53.177Z,10.30
2018-07-26T04:13:22.333Z,10.40
2018-07-26T04:15:51.422Z,9.57
2018-07-26T04:18:20.462Z,9.97
2018-07-26T04:20:49.572Z,10.37
2018-07-26T04:23:18.560Z,11.00
2018-07-26T04:25:47.572Z,10.47
2018-07-26T04:28:16.626Z,10.30
2018-07-26T04:30:45.666Z,10.53
2018-07-26T04:33:15.603Z,10.33
2018-07-26T04:35:44.680Z,10.10
2018-07-26T04:38:13.705Z,10.03
2018-07-26T04:40:42.696Z,8.63
2018-07-26T04:43:11.913Z,7.73
2018-07-26T04:45:41.046Z,9.33
2018-07-26T04:48:10.262Z,112.77
2018-07-26T04:50:39.840Z,81.53
2018-07-26T04:53:08.879Z,24.40
2018-07-26T04:55:37.922Z,16.00
2018-07-26T04:58:07.222Z,14.23
2018-07-26T05:00:36.208Z,11.53
2018-07-26T05:03:05.304Z,9.67
2018-07-26T05:05:34.362Z,8.17
2018-07-26T05:08:03.436Z,8.80
2018-07-26T05:10:32.561Z,8.60
2018-07-26T05:13:01.678Z,10.17
2018-07-26T05:15:30.721Z,9.43
2018-07-26T05:17:59.817Z,9.80
2018-07-26T05:20:28.824Z,12.17
2018-07-26T05:22:57.848Z,10.47
2018-07-26T05:25:26.991Z,13.00
2018-07-26T05:27:56.069Z,9.70
2018-07-26T05:30:25.129Z,10.67
2018-07-26T05:32:54.185Z,10.60
2018-07-26T05:35:23.177Z,8.57
2018-07-26T05:37:52.216Z,7.73
2018-07-26T05:40:21.383Z,7.50
2018-07-26T05:42:50.368Z,7.43
2018-07-26T05:45:19.398Z,7.60
2018-07-26T05:47:48.479Z,7.90
2018-07-26T05:50:17.552Z,8.03
2018-07-26T05:52:46.548Z,8.40
2018-07-26T05:55:15.685Z,8.57
2018-07-26T05:57:44.744Z,8.60
2018-07-26T06:00:14.800Z,9.03
2018-07-26T06:02:44.514Z,7.73
2018-07-26T06:05:13.523Z,7.73
2018-07-26T06:07:42.601Z,6.93
2018-07-26T06:10:11.644Z,6.10
2018-07-26T06:12:40.713Z,7.10
2018-07-26T06:15:11.921Z,6.87
2018-07-26T06:17:41.498Z,6.07
2018-07-26T06:20:12.009Z,3.67
2018-07-26T06:22:41.461Z,5.27
2018-07-26T06:25:10.771Z,4.90
2018-07-26T06:27:39.908Z,4.37
2018-07-26T06:30:11.881Z,4.93
2018-07-26T06:32:41.192Z,6.60
2018-07-26T06:35:10.900Z,6.30
2018-07-26T06:37:40.276Z,9.00
2018-07-26T06:40:09.364Z,8.80
2018-07-26T06:42:38.352Z,8.30
2018-07-26T06:45:08.520Z,7.70
2018-07-26T06:47:37.502Z,9.60
2018-07-26T06:50:08.638Z,8.10
2018-07-26T06:52:37.716Z,8.17
2018-07-26T06:55:06.980Z,7.20
2018-07-26T06:57:36.015Z,8.90
2018-07-26T07:00:06.751Z,9.53
2018-07-26T07:02:35.745Z,8.93
2018-07-26T07:05:04.747Z,8.97
2018-07-26T07:07:33.757Z,8.70
2018-07-26T07:10:02.855Z,8.53
2018-07-26T07:12:31.924Z,8.70
2018-07-26T07:15:00.884Z,8.13
2018-07-26T07:17:29.859Z,8.47
2018-07-26T07:19:58.821Z,7.73
2018-07-26T07:22:27.912Z,8.23
2018-07-26T07:24:56.937Z,7.20
2018-07-26T07:27:26.026Z,7.90
2018-07-26T07:29:55.106Z,8.67
2018-07-26T07:32:24.112Z,10.00
2018-07-26T07:34:53.128Z,7.33
2018-07-26T07:37:22.104Z,8.20
2018-07-26T07:39:51.080Z,7.73
2018-07-26T07:42:20.038Z,7.17
2018-07-26T07:44:49.107Z,6.50
2018-07-26T07:47:18.145Z,7.87
2018-07-26T07:49:47.084Z,6.53
2018-07-26T07:52:16.172Z,6.60
2018-07-26T07:54:45.197Z,5.97
2018-07-26T07:57:14.348Z,5.60
2018-07-26T07:59:43.327Z,5.50
2018-07-26T08:02:12.422Z,5.80
2018-07-26T08:04:41.381Z,5.33
2018-07-26T08:07:10.406Z,5.10
2018-07-26T08:09:39.442Z,5.23
2018-07-26T08:12:08.480Z,5.00
2018-07-26T08:14:37.638Z,5.17
2018-07-26T08:17:06.704Z,6.27
2018-07-26T08:19:35.717Z,5.10
2018-07-26T08:22:04.741Z,4.60
2018-07-26T08:24:33.753Z,5.93
2018-07-26T08:27:02.730Z,3.87
2018-07-26T08:29:31.758Z,4.30
2018-07-26T08:32:00.736Z,4.33
2018-07-26T08:34:29.760Z,3.27
2018-07-26T08:36:58.816Z,3.87
2018-07-26T08:39:27.792Z,4.37
2018-07-26T08:41:56.799Z,3.77
2018-07-26T08:44:25.844Z,3.50
2018-07-26T08:46:54.828Z,4.30
2018-07-26T08:49:23.827Z,3.60
2018-07-26T08:51:52.920Z,3.83
2018-07-26T08:54:22.060Z,4.27
2018-07-26T08:56:51.080Z,4.57
2018-07-26T08:59:20.045Z,5.80
2018-07-26T09:01:49.180Z,4.33
2018-07-26T09:04:18.152Z,4.17
2018-07-26T09:06:47.185Z,4.67
2018-07-26T09:09:16.277Z,4.33
2018-07-26T09:11:45.340Z,4.10
2018-07-26T09:14:14.475Z,4.27
2018-07-26T09:16:43.428Z,4.63
2018-07-26T09:19:12.400Z,4.40
2018-07-26T09:21:41.465Z,4.90
2018-07-26T09:24:10.462Z,4.60
2018-07-26T09:26:39.416Z,5.07
2018-07-26T09:29:08.455Z,4.80
2018-07-26T09:31:37.412Z,4.97
2018-07-26T09:34:06.450Z,4.30
2018-07-26T09:36:35.478Z,4.33
2018-07-26T09:39:06.763Z,4.23
2018-07-26T09:41:35.825Z,4.43
2018-07-26T09:44:04.778Z,4.90
2018-07-26T09:46:33.865Z,4.30
2018-07-26T09:49:02.868Z,4.30
2018-07-26T09:51:31.830Z,4.30
2018-07-26T09:54:00.801Z,4.00
2018-07-26T09:56:29.861Z,3.93
2018-07-26T09:58:58.912Z,3.60
2018-07-26T10:01:33.680Z,4.83
2018-07-26T10:04:02.773Z,4.23
2018-07-26T10:06:31.781Z,4.63
2018-07-26T10:09:00.801Z,3.60
2018-07-26T10:11:29.914Z,4.37
2018-07-26T10:13:58.950Z,3.30
2018-07-26T10:16:28.038Z,3.33
2018-07-26T10:18:57.010Z,3.73
2018-07-26T10:21:26.064Z,3.83
2018-07-26T10:23:55.013Z,3.60
2018-07-26T10:26:24.385Z,3.23
2018-07-26T10:28:53.480Z,4.40
2018-07-26T10:31:22.567Z,3.93
2018-07-26T10:33:51.544Z,3.53
2018-07-26T10:36:20.632Z,3.13
2018-07-26T10:38:49.722Z,3.40
2018-07-26T10:41:18.925Z,3.40
2018-07-26T10:43:47.872Z,3.13
2018-07-26T10:46:16.906Z,3.20
2018-07-26T10:48:45.881Z,3.53
2018-07-26T10:51:14.931Z,4.20
2018-07-26T10:53:43.948Z,4.10
2018-07-26T10:56:12.992Z,3.22
2018-07-26T10:58:42.396Z,3.25
2018-07-26T11:01:11.350Z,3.85
2018-07-26T11:03:40.361Z,2.90
2018-07-26T11:06:09.353Z,3.60
2018-07-26T11:08:38.384Z,3.35
2018-07-26T11:11:07.757Z,3.47
2018-07-26T11:13:36.836Z,3.20
2018-07-26T11:16:05.808Z,3.52
2018-07-26T11:18:34.805Z,3.17
2018-07-26T11:21:03.909Z,3.52
2018-07-26T11:23:33.005Z,3.62
2018-07-26T11:26:02.122Z,3.08
2018-07-26T11:28:31.158Z,3.55
2018-07-26T11:31:00.247Z,3.27
2018-07-26T11:33:29.228Z,4.17
2018-07-26T11:35:58.328Z,3.05
2018-07-26T11:38:27.373Z,3.70
2018-07-26T11:40:56.420Z,3.50
2018-07-26T11:43:25.449Z,3.75
2018-07-26T11:45:54.465Z,4.05
2018-07-26T11:48:23.500Z,3.72
2018-07-26T11:50:52.563Z,2.80
2018-07-26T11:53:21.569Z,3.62
2018-07-26T11:55:50.669Z,3.05
2018-07-26T11:58:19.648Z,3.02
2018-07-26T12:00:48.611Z,3.02
2018-07-26T12:03:17.628Z,2.77
2018-07-26T12:05:46.736Z,3.00
2018-07-26T12:08:15.720Z,3.05
2018-07-26T12:10:44.712Z,3.17
2018-07-26T12:13:13.712Z,4.08
2018-07-26T12:15:42.714Z,3.42
2018-07-26T12:18:11.933Z,3.67
2018-07-26T12:20:41.024Z,3.70
2018-07-26T12:23:10.101Z,2.85
2018-07-26T12:25:39.036Z,3.33
2018-07-26T12:28:08.330Z,3.20
2018-07-26T12:30:37.312Z,3.05
2018-07-26T12:33:06.356Z,3.70
2018-07-26T12:35:35.390Z,3.00
2018-07-26T12:38:04.401Z,3.00
2018-07-26T12:40:33.513Z,2.47
2018-07-26T12:43:02.881Z,3.25
2018-07-26T12:45:31.832Z,3.20
2018-07-26T12:48:00.929Z,3.30
2018-07-26T12:50:29.968Z,3.10
2018-07-26T12:52:58.944Z,2.90
2018-07-26T12:55:28.220Z,3.15
2018-07-26T12:57:57.304Z,3.55
2018-07-26T13:00:26.258Z,4.08
2018-07-26T13:02:55.265Z,3.75
2018-07-26T13:05:24.232Z,3.90
2018-07-26T13:07:53.208Z,3.70
2018-07-26T13:10:22.172Z,3.77
2018-07-26T13:12:51.136Z,3.52
2018-07-26T13:15:20.198Z,3.45
2018-07-26T13:17:49.550Z,3.42
2018-07-26T13:20:18.569Z,3.10
2018-07-26T13:22:47.608Z,3.40
2018-07-26T13:25:16.640Z,3.98
2018-07-26T13:27:45.613Z,3.50
2018-07-26T13:30:14.579Z,4.13
2018-07-26T13:32:43.560Z,4.40
2018-07-26T13:35:12.836Z,4.23
2018-07-26T13:37:41.876Z,3.93
2018-07-26T13:40:10.901Z,4.13
2018-07-26T13:42:39.860Z,4.20
2018-07-26T13:45:09.580Z,4.60
2018-07-26T13:47:38.697Z,3.70
2018-07-26T13:50:07.913Z,3.80
2018-07-26T13:52:36.989Z,3.77
2018-07-26T13:55:06.107Z,3.92
2018-07-26T13:57:35.087Z,4.63
2018-07-26T14:00:04.156Z,4.43
2018-07-26T14:02:33.186Z,4.43
2018-07-26T14:05:02.266Z,5.13
2018-07-26T14:07:31.377Z,4.90
2018-07-26T14:10:00.361Z,4.40
2018-07-26T14:12:29.437Z,4.20
2018-07-26T14:14:58.409Z,4.70
2018-07-26T14:17:27.456Z,5.17
2018-07-26T14:19:56.468Z,5.17
2018-07-26T14:22:25.434Z,4.40
2018-07-26T14:24:58.468Z,5.30
2018-07-26T14:27:27.628Z,4.70
2018-07-26T14:29:56.857Z,4.87
2018-07-26T14:32:25.815Z,4.67
2018-07-26T14:34:54.924Z,5.00
2018-07-26T14:37:23.977Z,5.60
2018-07-26T14:39:52.920Z,5.07
2018-07-26T14:42:21.913Z,5.37
2018-07-26T14:44:50.995Z,4.43
2018-07-26T14:47:19.968Z,4.90
2018-07-26T14:49:48.913Z,5.83
2018-07-26T14:52:17.993Z,5.20
2018-07-26T14:54:47.001Z,5.30
2018-07-26T14:57:16.073Z,4.97
2018-07-26T14:59:45.052Z,4.70
2018-07-26T15:02:14.173Z,5.00
2018-07-26T15:04:43.146Z,4.30
2018-07-26T15:07:12.115Z,5.03
2018-07-26T15:09:41.161Z,5.40
2018-07-26T15:12:10.376Z,4.70
2018-07-26T15:14:39.337Z,5.23
2018-07-26T15:17:08.316Z,5.03
2018-07-26T15:19:37.415Z,4.83
2018-07-26T15:22:06.461Z,5.17
2018-07-26T15:24:36.241Z,5.30
2018-07-26T15:27:06.097Z,5.10
2018-07-26T15:29:35.085Z,5.90
2018-07-26T15:32:04.057Z,6.63
2018-07-26T15:34:33.040Z,4.63
2018-07-26T15:37:03.507Z,6.30
2018-07-26T15:39:32.525Z,5.43
2018-07-26T15:42:01.593Z,5.60
2018-07-26T15:44:30.765Z,5.57
2018-07-26T15:46:59.782Z,6.13
2018-07-26T15:49:28.856Z,8.57
2018-07-26T15:51:57.945Z,6.57
2018-07-26T15:54:27.028Z,6.97
2018-07-26T15:56:56.020Z,6.60
2018-07-26T15:59:24.991Z,6.47
2018-07-26T16:01:54.008Z,6.50
2018-07-26T16:04:23.127Z,6.90
2018-07-26T16:06:52.292Z,6.27
2018-07-26T16:09:21.277Z,8.10
2018-07-26T16:11:50.341Z,7.50
2018-07-26T16:14:19.352Z,7.90
2018-07-26T16:16:48.360Z,7.60
2018-07-26T16:19:17.485Z,6.87
2018-07-26T16:21:46.512Z,6.50
2018-07-26T16:24:15.673Z,7.07
2018-07-26T16:26:44.693Z,8.07
2018-07-26T16:29:13.725Z,7.43
2018-07-26T16:31:42.708Z,7.87
2018-07-26T16:34:11.845Z,8.73
2018-07-26T16:36:40.876Z,7.57
2018-07-26T16:39:11.737Z,8.53
2018-07-26T16:41:40.860Z,7.67
2018-07-26T16:44:09.840Z,7.70
2018-07-26T16:46:38.835Z,6.93
2018-07-26T16:49:08.446Z,7.50
2018-07-26T16:51:37.451Z,7.43
2018-07-26T16:54:06.529Z,7.77
2018-07-26T16:56:35.556Z,7.50
2018-07-26T16:59:04.715Z,7.00
2018-07-26T17:01:33.747Z,10.73
2018-07-26T17:04:02.755Z,7.30
2018-07-26T17:06:31.835Z,7.70
2018-07-26T17:09:00.791Z,7.80
2018-07-26T17:11:29.843Z,7.30
2018-07-26T17:13:58.870Z,7.33
2018-07-26T17:16:27.873Z,8.20
2018-07-26T17:18:56.979Z,8.40
2018-07-26T17:21:25.979Z,7.20
2018-07-26T17:23:58.458Z,9.27
2018-07-26T17:26:27.665Z,9.47
2018-07-26T17:28:56.716Z,7.63
2018-07-26T17:31:25.693Z,8.43
2018-07-26T17:33:54.885Z,6.63
2018-07-26T17:36:23.892Z,8.30
2018-07-26T17:38:52.857Z,6.53
2018-07-26T17:41:21.803Z,7.50
2018-07-26T17:43:50.937Z,7.93
2018-07-26T17:46:19.905Z,7.30
2018-07-26T17:48:48.989Z,6.70
2018-07-26T17:51:17.999Z,8.03
2018-07-26T17:53:46.996Z,9.13
2018-07-26T17:56:16.078Z,8.60
2018-07-26T17:58:45.085Z,7.73
2018-07-26T18:01:14.720Z,6.90
2018-07-26T18:03:43.875Z,6.53
2018-07-26T18:06:12.925Z,6.70
2018-07-26T18:08:41.884Z,6.40
2018-07-26T18:11:10.864Z,6.50
2018-07-26T18:13:39.879Z,5.80
2018-07-26T18:16:08.877Z,6.73
2018-07-26T18:18:42.775Z,7.13
2018-07-26T18:21:11.793Z,6.73
2018-07-26T18:23:40.854Z,8.43
2018-07-26T18:26:09.925Z,7.60
2018-07-26T18:28:38.923Z,6.73
2018-07-26T18:31:08.010Z,6.40
2018-07-26T18:33:36.977Z,7.80
2018-07-26T18:36:06.148Z,7.47
2018-07-26T18:38:35.142Z,6.97
2018-07-26T18:41:04.120Z,7.00
2018-07-26T18:43:33.331Z,5.60
2018-07-26T18:46:02.347Z,5.37
2018-07-26T18:48:31.522Z,5.20
2018-07-26T18:51:00.650Z,5.23
2018-07-26T18:53:29.724Z,5.47
2018-07-26T18:55:58.658Z,5.60
2018-07-26T18:58:27.706Z,5.90
2018-07-26T19:00:56.702Z,6.77
2018-07-26T19:03:25.793Z,5.57
2018-07-26T19:05:54.775Z,6.50
2018-07-26T19:08:23.789Z,5.77
2018-07-26T19:10:52.866Z,6.20
2018-07-26T19:13:21.912Z,6.57
2018-07-26T19:15:50.932Z,6.10
2018-07-26T19:18:20.028Z,5.40
2018-07-26T19:20:49.105Z,5.60
2018-07-26T19:23:18.150Z,6.40
2018-07-26T19:25:47.213Z,5.93
2018-07-26T19:28:16.332Z,5.70
2018-07-26T19:30:45.291Z,5.10
2018-07-26T19:33:14.308Z,6.00
2018-07-26T19:35:43.290Z,6.20
2018-07-26T19:38:12.260Z,6.93
2018-07-26T19:40:41.248Z,6.63
2018-07-26T19:43:10.265Z,6.10
2018-07-26T19:45:39.357Z,6.07
2018-07-26T19:48:08.394Z,6.03
2018-07-26T19:50:37.504Z,6.30
2018-07-26T19:53:06.636Z,6.07
2018-07-26T19:55:35.674Z,6.70
2018-07-26T19:58:04.651Z,5.63
2018-07-26T20:00:33.604Z,5.50
2018-07-26T20:03:02.633Z,5.47
2018-07-26T20:05:31.605Z,5.90
2018-07-26T20:08:00.705Z,5.87
2018-07-26T20:10:29.740Z,5.43
2018-07-26T20:12:58.736Z,5.57
2018-07-26T20:15:27.874Z,6.03
2018-07-26T20:17:56.917Z,5.40
2018-07-26T20:20:25.884Z,5.40
2018-07-26T20:22:55.029Z,6.30
2018-07-26T20:25:24.061Z,8.97
2018-07-26T20:27:53.113Z,5.13
2018-07-26T20:30:22.132Z,7.57
2018-07-26T20:32:51.231Z,6.17
2018-07-26T20:35:20.244Z,6.20
2018-07-26T20:37:49.327Z,5.20
2018-07-26T20:40:18.484Z,5.20
2018-07-26T20:42:47.432Z,5.83
2018-07-26T20:45:16.408Z,6.07
2018-07-26T20:47:45.360Z,6.17
2018-07-26T20:50:14.391Z,5.67
2018-07-26T20:52:43.351Z,5.90
2018-07-26T20:55:12.428Z,5.63
2018-07-26T20:57:41.469Z,6.20
2018-07-26T21:00:12.169Z,6.57
2018-07-26T21:02:41.520Z,6.10
2018-07-26T21:05:10.669Z,6.17
2018-07-26T21:07:39.732Z,6.90
2018-07-26T21:10:09.555Z,6.77
2018-07-26T21:12:38.536Z,6.30
2018-07-26T21:15:08.891Z,6.53
2018-07-26T21:17:37.868Z,7.20
2018-07-26T21:20:06.966Z,7.60
2018-07-26T21:22:36.101Z,7.53
2018-07-26T21:25:05.169Z,6.67
2018-07-26T21:27:34.239Z,6.07
2018-07-26T21:30:03.213Z,6.63
2018-07-26T21:32:32.312Z,7.10
2018-07-26T21:35:01.285Z,7.17
2018-07-26T21:37:30.320Z,7.03
2018-07-26T21:39:59.332Z,7.10
2018-07-26T21:42:28.421Z,6.97
2018-07-26T21:44:57.461Z,8.50
2018-07-26T21:47:26.430Z,6.97
2018-07-26T21:49:55.525Z,7.33
2018-07-26T21:52:24.533Z,6.93
2018-07-26T21:54:53.511Z,6.70
2018-07-26T21:57:22.680Z,7.00
2018-07-26T21:59:51.648Z,6.00
2018-07-26T22:02:20.687Z,7.67
2018-07-26T22:04:49.796Z,7.00
2018-07-26T22:07:18.817Z,6.53
2018-07-26T22:09:47.872Z,6.67
2018-07-26T22:12:16.862Z,6.87
2018-07-26T22:14:45.824Z,6.87
2018-07-26T22:17:14.862Z,7.43
2018-07-26T22:19:43.836Z,6.53
2018-07-26T22:22:12.874Z,7.67
2018-07-26T22:24:41.915Z,6.87
2018-07-26T22:27:10.955Z,7.10
2018-07-26T22:29:39.920Z,7.93
2018-07-26T22:32:08.952Z,7.53
2018-07-26T22:34:37.932Z,7.97
2018-07-26T22:37:07.041Z,8.27
2018-07-26T22:39:36.141Z,8.37
2018-07-26T22:42:05.120Z,7.87
2018-07-26T22:44:34.128Z,8.13
2018-07-26T22:47:03.160Z,7.97
2018-07-26T22:49:32.193Z,9.47
2018-07-26T22:52:01.161Z,8.80
2018-07-26T22:54:30.238Z,9.13
2018-07-26T22:56:59.381Z,9.20
2018-07-26T22:59:28.412Z,9.90
2018-07-26T23:01:57.432Z,8.90
2018-07-26T23:04:26.612Z,10.47
2018-07-26T23:06:55.582Z,10.63
2018-07-26T23:09:24.559Z,11.00
2018-07-26T23:11:53.568Z,11.00
2018-07-26T23:14:22.664Z,10.43
2018-07-26T23:16:51.729Z,11.73
2018-07-26T23:19:20.718Z,10.37
2018-07-26T23:21:49.808Z,11.27
2018-07-26T23:24:18.845Z,10.47
2018-07-26T23:26:47.811Z,11.30
2018-07-26T23:29:16.780Z,9.80
2018-07-26T23:31:45.776Z,11.30
2018-07-26T23:34:14.756Z,11.00
2018-07-26T23:36:43.837Z,11.30
2018-07-26T23:39:13.659Z,11.10
2018-07-26T23:41:42.680Z,9.43
2018-07-26T23:44:11.660Z,11.17
2018-07-26T23:46:40.607Z,12.10
2018-07-26T23:49:09.581Z,10.10
2018-07-26T23:51:38.600Z,11.20
2018-07-26T23:54:07.623Z,11.93
2018-07-26T23:56:36.589Z,10.23
2018-07-26T23:59:05.677Z,12.07
